Time,TemperatureF,DewpointF,PressureIn,WindDirection,WindDirectionDegrees,WindSpeedMPH,WindSpeedGustMPH,Humidity,HourlyPrecipIn,Conditions,Clouds,dailyrainin,SolarRadiationWatts/m^2,SoftwareType,DateUTC
2013-05-12 00:03:00,-999.0,-99.9,29.41,SW,234,3.0,9.0,100,0.15,,,0.39,0.000000,,2013-05-12 04:03:00,
2013-05-12 00:12:00,66.0,66.0,29.41,SW,234,3.0,9.0,100,0.15,,,0.39,0.000000,,2013-05-12 04:12:00,
2013-05-12 00:43:00,65.0,65.0,29.39,West,264,2.0,9.0,100,0.00,,,0.39,0.000000,,2013-05-12 04:43:00,
2013-05-12 00:52:00,65.0,65.0,29.39,West,264,2.0,9.0,100,0.00,,,0.39,0.000000,,2013-05-12 04:52:00,
2013-05-12 01:02:00,65.0,65.0,29.39,West,264,2.0,9.0,100,0.00,,,0.39,0.000000,,2013-05-12 05:02:00,
2013-05-12 01:12:00,65.0,65.0,29.39,West,264,2.0,9.0,100,0.00,,,0.39,0.000000,,2013-05-12 05:12:00,
2013-05-12 01:42:00,63.0,63.0,29.41,West,272,3.0,10.0,100,0.00,,,0.39,0.000000,,2013-05-12 05:42:00,
2013-05-12 01:52:00,63.0,63.0,29.41,West,272,3.0,10.0,100,0.00,,,0.39,0.000000,,2013-05-12 05:52:00,
2013-05-12 02:02:00,63.0,63.0,29.41,West,272,3.0,10.0,100,0.00,,,0.39,0.000000,,2013-05-12 06:02:00,
2013-05-12 02:11:00,63.0,63.0,29.41,West,272,3.0,10.0,100,0.00,,,0.39,0.000000,,2013-05-12 06:11:00,
2013-05-12 02:42:00,62.0,62.0,29.40,NW,308,2.0,5.0,100,0.00,,,0.39,0.000000,,2013-05-12 06:42:00,
2013-05-12 02:52:00,62.0,62.0,29.40,NW,308,2.0,5.0,100,0.00,,,0.39,0.000000,,2013-05-12 06:52:00,
2013-05-12 03:02:00,62.0,62.0,29.40,NW,308,2.0,5.0,100,0.00,,,0.39,0.000000,,2013-05-12 07:02:00,
2013-05-12 03:11:00,62.0,62.0,29.40,NW,308,2.0,5.0,100,0.00,,,0.39,0.000000,,2013-05-12 07:11:00,
2013-05-12 03:42:00,63.0,63.0,29.41,WNW,295,3.0,8.0,100,0.00,,,0.39,0.000000,,2013-05-12 07:42:00,
2013-05-12 03:52:00,63.0,63.0,29.41,WNW,295,3.0,8.0,100,0.00,,,0.39,0.000000,,2013-05-12 07:52:00,
2013-05-12 04:02:00,63.0,63.0,29.41,WNW,295,3.0,8.0,100,0.00,,,0.39,0.000000,,2013-05-12 08:02:00,
2013-05-12 04:11:00,63.0,63.0,29.41,WNW,295,3.0,8.0,100,0.00,,,0.39,0.000000,,2013-05-12 08:11:00,
2013-05-12 04:42:00,61.0,61.0,29.41,NW,310,3.0,7.0,100,0.00,,,0.39,0.000000,,2013-05-12 08:42:00,
2013-05-12 04:53:00,61.0,61.0,29.41,NW,310,3.0,7.0,100,0.00,,,0.39,0.000000,,2013-05-12 08:53:00,
2013-05-12 05:01:00,61.0,61.0,29.41,NW,310,3.0,7.0,100,0.00,,,0.39,0.000000,,2013-05-12 09:01:00,
2013-05-12 05:11:00,61.0,61.0,29.41,NW,310,3.0,7.0,100,0.00,,,0.39,0.000000,,2013-05-12 09:11:00,
2013-05-12 05:43:00,61.0,61.0,29.41,NW,319,5.0,10.0,99,0.00,,,0.39,0.000000,,2013-05-12 09:43:00,
2013-05-12 05:53:00,61.0,61.0,29.41,NW,319,5.0,10.0,99,0.00,,,0.39,0.000000,,2013-05-12 09:53:00,
2013-05-12 06:03:00,61.0,61.0,29.41,NW,319,5.0,10.0,99,0.00,,,0.39,0.000000,,2013-05-12 10:03:00,
2013-05-12 06:12:00,61.0,61.0,29.41,NW,319,5.0,10.0,99,0.00,,,0.39,0.000000,,2013-05-12 10:12:00,
2013-05-12 06:42:00,60.0,55.0,29.43,NW,315,5.0,14.0,85,0.00,,,0.39,0.000000,,2013-05-12 10:42:00,
2013-05-12 06:52:00,60.0,55.0,29.43,NW,315,5.0,14.0,85,0.00,,,0.39,0.000000,,2013-05-12 10:52:00,
2013-05-12 07:03:00,60.0,55.0,29.43,NW,315,5.0,14.0,85,0.00,,,0.39,0.000000,,2013-05-12 11:03:00,
2013-05-12 07:12:00,60.0,55.0,29.43,NW,315,5.0,14.0,85,0.00,,,0.39,0.000000,,2013-05-12 11:12:00,
2013-05-12 07:42:00,57.0,52.0,29.45,NW,317,4.0,10.0,82,0.00,,,0.39,16.000000,,2013-05-12 11:42:00,
2013-05-12 07:52:00,57.0,52.0,29.45,NW,317,4.0,10.0,82,0.00,,,0.39,16.000000,,2013-05-12 11:52:00,
2013-05-12 08:02:00,57.0,52.0,29.45,NW,317,4.0,10.0,82,0.00,,,0.39,16.000000,,2013-05-12 12:02:00,
2013-05-12 08:11:00,57.0,52.0,29.45,NW,317,4.0,10.0,82,0.00,,,0.39,16.000000,,2013-05-12 12:11:00,
2013-05-12 08:42:00,60.0,53.0,29.47,NW,314,3.0,11.0,77,0.00,,,0.39,95.000000,,2013-05-12 12:42:00,
2013-05-12 08:52:00,60.0,53.0,29.47,NW,314,3.0,11.0,77,0.00,,,0.39,95.000000,,2013-05-12 12:52:00,
2013-05-12 09:02:00,60.0,53.0,29.47,NW,314,3.0,11.0,77,0.00,,,0.39,95.000000,,2013-05-12 13:02:00,
2013-05-12 09:11:00,60.0,53.0,29.47,NW,314,3.0,11.0,77,0.00,,,0.39,95.000000,,2013-05-12 13:11:00,
2013-05-12 09:42:00,64.0,49.0,29.48,NW,323,8.0,17.0,58,0.00,,,0.39,405.000000,,2013-05-12 13:42:00,
2013-05-12 09:52:00,64.0,49.0,29.48,NW,323,8.0,17.0,58,0.00,,,0.39,405.000000,,2013-05-12 13:52:00,
2013-05-12 10:01:00,64.0,49.0,29.48,NW,323,8.0,17.0,58,0.00,,,0.39,405.000000,,2013-05-12 14:01:00,
2013-05-12 10:11:00,64.0,49.0,29.48,NW,323,8.0,17.0,58,0.00,,,0.39,405.000000,,2013-05-12 14:11:00,
2013-05-12 10:42:00,67.0,49.0,29.49,NW,318,8.0,17.0,52,0.00,,,0.39,623.000000,,2013-05-12 14:42:00,
2013-05-12 10:52:00,67.0,49.0,29.49,NW,318,8.0,17.0,52,0.00,,,0.39,623.000000,,2013-05-12 14:52:00,
2013-05-12 11:01:00,67.0,49.0,29.49,NW,318,8.0,17.0,52,0.00,,,0.39,623.000000,,2013-05-12 15:01:00,
2013-05-12 11:11:00,67.0,49.0,29.49,NW,318,8.0,17.0,52,0.00,,,0.39,623.000000,,2013-05-12 15:11:00,
2013-05-12 11:42:00,68.0,49.0,29.49,NW,313,8.0,20.0,51,0.00,,,0.39,720.000000,,2013-05-12 15:42:00,
2013-05-12 11:53:00,68.0,49.0,29.49,NW,313,8.0,20.0,51,0.00,,,0.39,720.000000,,2013-05-12 15:53:00,
2013-05-12 12:02:00,68.0,49.0,29.49,NW,313,8.0,20.0,51,0.00,,,0.39,720.000000,,2013-05-12 16:02:00,
2013-05-12 12:13:00,68.0,49.0,29.49,NW,313,8.0,20.0,51,0.00,,,0.39,720.000000,,2013-05-12 16:13:00,
2013-05-12 12:42:00,70.0,49.0,29.48,NW,317,8.0,18.0,47,0.00,,,0.39,765.000000,,2013-05-12 16:42:00,
2013-05-12 12:53:00,70.0,49.0,29.48,NW,317,8.0,18.0,47,0.00,,,0.39,765.000000,,2013-05-12 16:53:00,
2013-05-12 13:02:00,70.0,49.0,29.48,NW,317,8.0,18.0,47,0.00,,,0.39,765.000000,,2013-05-12 17:02:00,
2013-05-12 13:12:00,70.0,49.0,29.48,NW,317,8.0,18.0,47,0.00,,,0.39,765.000000,,2013-05-12 17:12:00,
2013-05-12 13:42:00,70.0,46.0,29.49,WNW,290,9.0,22.0,43,0.00,,,0.39,609.000000,,2013-05-12 17:42:00,
2013-05-12 13:53:00,70.0,46.0,29.49,WNW,290,9.0,22.0,43,0.00,,,0.39,609.000000,,2013-05-12 17:53:00,
2013-05-12 14:01:00,70.0,46.0,29.49,WNW,290,9.0,22.0,43,0.00,,,0.39,609.000000,,2013-05-12 18:01:00,
2013-05-12 14:12:00,70.0,46.0,29.49,WNW,290,9.0,22.0,43,0.00,,,0.39,609.000000,,2013-05-12 18:12:00,
2013-05-12 14:42:00,72.0,44.0,29.49,WNW,295,9.0,24.0,37,0.00,,,0.39,442.000000,,2013-05-12 18:42:00,
2013-05-12 14:52:00,72.0,44.0,29.49,WNW,295,9.0,24.0,37,0.00,,,0.39,442.000000,,2013-05-12 18:52:00,
2013-05-12 15:01:00,72.0,44.0,29.49,WNW,295,9.0,24.0,37,0.00,,,0.39,442.000000,,2013-05-12 19:01:00,
2013-05-12 15:11:00,72.0,44.0,29.49,WNW,295,9.0,24.0,37,0.00,,,0.39,442.000000,,2013-05-12 19:11:00,
2013-05-12 15:42:00,71.0,40.0,29.48,WNW,296,9.0,24.0,33,0.00,,,0.37,849.000000,,2013-05-12 19:42:00,
2013-05-12 15:52:00,71.0,40.0,29.48,WNW,296,9.0,24.0,33,0.00,,,0.37,849.000000,,2013-05-12 19:52:00,
2013-05-12 16:02:00,71.0,40.0,29.48,WNW,296,9.0,24.0,33,0.00,,,0.37,849.000000,,2013-05-12 20:02:00,
2013-05-12 16:11:00,71.0,40.0,29.48,WNW,296,9.0,24.0,33,0.00,,,0.37,849.000000,,2013-05-12 20:11:00,
2013-05-12 16:42:00,70.0,38.0,29.48,NW,306,7.0,23.0,31,0.00,,,0.15,753.000000,,2013-05-12 20:42:00,
2013-05-12 16:52:00,70.0,38.0,29.48,NW,306,7.0,23.0,31,0.00,,,0.15,753.000000,,2013-05-12 20:52:00,
2013-05-12 17:01:00,70.0,38.0,29.48,NW,306,7.0,23.0,31,0.00,,,0.15,753.000000,,2013-05-12 21:01:00,
2013-05-12 17:11:00,70.0,38.0,29.48,NW,306,7.0,23.0,31,0.00,,,0.15,753.000000,,2013-05-12 21:11:00,
2013-05-12 17:33:00,71.0,38.0,29.49,NW,311,10.0,21.0,30,0.00,,,-99.99,616.000000,,2013-05-12 21:33:00,
2013-05-12 17:42:00,71.0,38.0,29.49,NW,311,10.0,21.0,30,0.00,,,-99.99,616.000000,,2013-05-12 21:42:00,
2013-05-12 17:53:00,71.0,38.0,29.49,NW,311,10.0,21.0,30,0.00,,,-99.99,616.000000,,2013-05-12 21:53:00,
2013-05-12 18:02:00,71.0,38.0,29.49,NW,311,10.0,21.0,30,0.00,,,-99.99,616.000000,,2013-05-12 22:02:00,
2013-05-12 18:12:00,71.0,38.0,29.49,NW,311,10.0,21.0,30,0.00,,,-99.99,616.000000,,2013-05-12 22:12:00,
2013-05-12 18:42:00,69.0,35.0,29.50,NW,317,9.0,18.0,28,0.00,,,0.15,421.000000,,2013-05-12 22:42:00,
2013-05-12 18:52:00,69.0,35.0,29.50,NW,317,9.0,18.0,28,0.00,,,0.15,421.000000,,2013-05-12 22:52:00,
2013-05-12 19:02:00,69.0,35.0,29.50,NW,317,9.0,18.0,28,0.00,,,0.15,421.000000,,2013-05-12 23:02:00,
2013-05-12 19:12:00,69.0,35.0,29.50,NW,317,9.0,18.0,28,0.00,,,0.15,421.000000,,2013-05-12 23:12:00,
2013-05-12 19:42:00,67.0,35.0,29.53,NW,314,6.0,18.0,30,0.00,,,0.15,240.000000,,2013-05-12 23:42:00,
2013-05-12 19:52:00,67.0,35.0,29.53,NW,314,6.0,18.0,30,0.00,,,0.15,240.000000,,2013-05-12 23:52:00,
2013-05-12 20:01:00,67.0,35.0,29.53,NW,314,6.0,18.0,30,0.00,,,0.15,240.000000,,2013-05-13 00:01:00,
2013-05-12 20:11:00,67.0,35.0,29.53,NW,314,6.0,18.0,30,0.00,,,0.15,240.000000,,2013-05-13 00:11:00,
2013-05-12 20:42:00,60.0,31.0,29.55,North,351,4.0,14.0,33,0.00,,,0.15,54.000000,,2013-05-13 00:42:00,
2013-05-12 20:52:00,60.0,31.0,29.55,North,351,4.0,14.0,33,0.00,,,0.15,54.000000,,2013-05-13 00:52:00,
2013-05-12 21:01:00,60.0,31.0,29.55,North,351,4.0,14.0,33,0.00,,,0.15,54.000000,,2013-05-13 01:01:00,
2013-05-12 21:11:00,60.0,31.0,29.55,North,351,4.0,14.0,33,0.00,,,0.15,54.000000,,2013-05-13 01:11:00,
2013-05-12 21:42:00,53.0,36.0,29.58,NW,311,1.0,7.0,52,0.00,,,0.15,0.000000,,2013-05-13 01:42:00,
2013-05-12 21:52:00,53.0,36.0,29.58,NW,311,1.0,7.0,52,0.00,,,0.15,0.000000,,2013-05-13 01:52:00,
2013-05-12 22:02:00,53.0,36.0,29.58,NW,311,1.0,7.0,52,0.00,,,0.15,0.000000,,2013-05-13 02:02:00,
2013-05-12 22:11:00,53.0,36.0,29.58,NW,311,1.0,7.0,52,0.00,,,0.15,0.000000,,2013-05-13 02:11:00,
2013-05-12 22:32:00,52.0,33.0,29.60,North,8,3.0,8.0,49,0.00,,,0.15,0.000000,,2013-05-13 02:32:00,
2013-05-12 22:42:00,52.0,33.0,29.60,North,8,3.0,8.0,49,0.00,,,0.15,0.000000,,2013-05-13 02:42:00,
2013-05-12 22:52:00,52.0,33.0,29.60,North,8,3.0,8.0,49,0.00,,,0.15,0.000000,,2013-05-13 02:52:00,
2013-05-12 23:02:00,52.0,33.0,29.60,North,8,3.0,8.0,49,0.00,,,0.15,0.000000,,2013-05-13 03:02:00,
2013-05-12 23:11:00,52.0,33.0,29.60,North,8,3.0,8.0,49,0.00,,,0.15,0.000000,,2013-05-13 03:11:00,
2013-05-12 23:42:00,53.0,30.0,29.60,North,353,4.0,12.0,41,0.00,,,0.00,0.000000,,2013-05-13 03:42:00,
2013-05-12 23:53:00,53.0,30.0,29.60,North,353,4.0,12.0,41,0.00,,,0.00,0.000000,,2013-05-13 03:53:00,